sensor_id;sensor_type;location;lat;lon;timestamp;pressure;altitude;pressure_sealevel;temperature;humidity
31483;BME280;18103;52.246;8.052;2023-08-08T00:01:57;100143.78;;;14.10;83.49
31483;BME280;18103;52.246;8.052;2023-08-08T00:04:22;100131.78;;;14.06;83.60
31483;BME280;18103;52.246;8.052;2023-08-08T00:06:47;100124.84;;;13.95;84.23
31483;BME280;18103;52.246;8.052;2023-08-08T00:09:16;100121.88;;;14.08;83.84
31483;BME280;18103;52.246;8.052;2023-08-08T00:11:41;100110.84;;;14.02;84.07
31483;BME280;18103;52.246;8.052;2023-08-08T00:14:09;100114.88;;;14.07;83.75
31483;BME280;18103;52.246;8.052;2023-08-08T00:16:34;100117.53;;;14.07;83.76
31483;BME280;18103;52.246;8.052;2023-08-08T00:19:00;100120.28;;;14.15;83.50
31483;BME280;18103;52.246;8.052;2023-08-08T00:21:28;100110.41;;;14.07;83.93
31483;BME280;18103;52.246;8.052;2023-08-08T00:23:53;100104.13;;;14.08;83.50
31483;BME280;18103;52.246;8.052;2023-08-08T00:26:19;100109.50;;;14.16;83.13
31483;BME280;18103;52.246;8.052;2023-08-08T00:28:44;100106.31;;;14.13;82.92
31483;BME280;18103;52.246;8.052;2023-08-08T00:31:12;100107.78;;;14.25;82.99
31483;BME280;18103;52.246;8.052;2023-08-08T00:33:37;100099.19;;;14.13;83.82
31483;BME280;18103;52.246;8.052;2023-08-08T00:36:03;100103.50;;;14.14;83.54
31483;BME280;18103;52.246;8.052;2023-08-08T00:38:28;100094.56;;;14.15;83.36
31483;BME280;18103;52.246;8.052;2023-08-08T00:40:56;100099.06;;;14.15;83.23
31483;BME280;18103;52.246;8.052;2023-08-08T00:43:24;100097.53;;;14.12;83.67
31483;BME280;18103;52.246;8.052;2023-08-08T00:45:49;100089.88;;;14.09;83.85
31483;BME280;18103;52.246;8.052;2023-08-08T00:48:15;100082.56;;;14.11;83.75
31483;BME280;18103;52.246;8.052;2023-08-08T00:50:42;100082.25;;;14.14;83.46
31483;BME280;18103;52.246;8.052;2023-08-08T00:53:09;100077.88;;;14.05;84.06
31483;BME280;18103;52.246;8.052;2023-08-08T00:55:38;100086.91;;;14.12;83.58
31483;BME280;18103;52.246;8.052;2023-08-08T00:58:04;100077.97;;;14.13;84.07
31483;BME280;18103;52.246;8.052;2023-08-08T01:00:31;100078.41;;;14.09;84.53
31483;BME280;18103;52.246;8.052;2023-08-08T01:02:59;100082.72;;;14.10;84.50
31483;BME280;18103;52.246;8.052;2023-08-08T01:05:29;100081.81;;;14.01;84.99
31483;BME280;18103;52.246;8.052;2023-08-08T01:08:04;100077.97;;;14.13;84.57
31483;BME280;18103;52.246;8.052;2023-08-08T01:10:33;100073.59;;;13.94;85.46
31483;BME280;18103;52.246;8.052;2023-08-08T01:13:13;100072.56;;;14.05;85.15
31483;BME280;18103;52.246;8.052;2023-08-08T01:15:43;100064.53;;;14.15;84.13
31483;BME280;18103;52.246;8.052;2023-08-08T01:18:10;100070.97;;;14.12;85.06
31483;BME280;18103;52.246;8.052;2023-08-08T01:20:37;100064.53;;;14.15;84.75
31483;BME280;18103;52.246;8.052;2023-08-08T01:23:14;100065.88;;;14.01;85.10
31483;BME280;18103;52.246;8.052;2023-08-08T01:25:42;100059.06;;;13.98;85.56
31483;BME280;18103;52.246;8.052;2023-08-08T01:28:10;100054.38;;;14.10;85.24
31483;BME280;18103;52.246;8.052;2023-08-08T01:30:35;100060.97;;;14.06;85.52
31483;BME280;18103;52.246;8.052;2023-08-08T01:33:03;100057.09;;;14.18;84.99
31483;BME280;18103;52.246;8.052;2023-08-08T01:35:31;100056.81;;;14.22;84.75
31483;BME280;18103;52.246;8.052;2023-08-08T01:38:07;100052.94;;;13.98;85.91
31483;BME280;18103;52.246;8.052;2023-08-08T01:40:35;100045.72;;;14.08;85.63
31483;BME280;18103;52.246;8.052;2023-08-08T01:43:00;100043.28;;;13.97;86.10
31483;BME280;18103;52.246;8.052;2023-08-08T01:45:26;100037.75;;;14.08;85.63
31483;BME280;18103;52.246;8.052;2023-08-08T01:47:52;100035.19;;;13.98;86.37
31483;BME280;18103;52.246;8.052;2023-08-08T01:50:20;100033.81;;;14.12;85.37
31483;BME280;18103;52.246;8.052;2023-08-08T01:52:46;100033.50;;;13.97;86.45
31483;BME280;18103;52.246;8.052;2023-08-08T01:55:12;100029.31;;;13.95;86.63
31483;BME280;18103;52.246;8.052;2023-08-08T01:57:37;100032.75;;;14.05;86.35
31483;BME280;18103;52.246;8.052;2023-08-08T02:00:04;100040.66;;;14.15;85.85
31483;BME280;18103;52.246;8.052;2023-08-08T02:02:29;100026.91;;;14.01;86.49
31483;BME280;18103;52.246;8.052;2023-08-08T02:04:55;100032.53;;;13.98;86.73
31483;BME280;18103;52.246;8.052;2023-08-08T02:07:20;100026.53;;;13.96;87.08
31483;BME280;18103;52.246;8.052;2023-08-08T02:09:48;100025.19;;;13.92;87.24
31483;BME280;18103;52.246;8.052;2023-08-08T02:12:18;100026.25;;;13.99;86.89
31483;BME280;18103;52.246;8.052;2023-08-08T02:14:43;100029.13;;;14.06;86.48
31483;BME280;18103;52.246;8.052;2023-08-08T02:17:09;100019.03;;;14.10;86.28
31483;BME280;18103;52.246;8.052;2023-08-08T02:19:36;100015.09;;;14.14;86.25
31483;BME280;18103;52.246;8.052;2023-08-08T02:22:04;100016.53;;;14.08;86.37
31483;BME280;18103;52.246;8.052;2023-08-08T02:24:29;100017.59;;;14.15;86.12
31483;BME280;18103;52.246;8.052;2023-08-08T02:26:55;100015.41;;;14.11;86.28
31483;BME280;18103;52.246;8.052;2023-08-08T02:29:23;100017.50;;;14.07;86.21
31483;BME280;18103;52.246;8.052;2023-08-08T02:31:48;100019.19;;;14.08;86.47
31483;BME280;18103;52.246;8.052;2023-08-08T02:34:15;100017.44;;;14.17;85.82
31483;BME280;18103;52.246;8.052;2023-08-08T02:36:43;100017.97;;;14.20;85.76
31483;BME280;18103;52.246;8.052;2023-08-08T02:39:11;100021.91;;;14.16;86.07
31483;BME280;18103;52.246;8.052;2023-08-08T02:41:38;100020.72;;;14.11;86.27
31483;BME280;18103;52.246;8.052;2023-08-08T02:44:07;100022.59;;;14.18;85.84
31483;BME280;18103;52.246;8.052;2023-08-08T02:46:33;100010.59;;;14.14;86.19
31483;BME280;18103;52.246;8.052;2023-08-08T02:48:58;100013.81;;;14.18;86.27
31483;BME280;18103;52.246;8.052;2023-08-08T02:51:24;100007.59;;;14.09;86.69
31483;BME280;18103;52.246;8.052;2023-08-08T02:53:49;100012.97;;;14.17;86.14
31483;BME280;18103;52.246;8.052;2023-08-08T02:56:17;100008.25;;;14.11;86.51
31483;BME280;18103;52.246;8.052;2023-08-08T02:58:44;100006.31;;;14.13;86.58
31483;BME280;18103;52.246;8.052;2023-08-08T03:01:10;100006.00;;;14.16;86.51
31483;BME280;18103;52.246;8.052;2023-08-08T03:03:40;100005.91;;;14.08;86.88
31483;BME280;18103;52.246;8.052;2023-08-08T03:06:08;100009.03;;;14.22;86.19
31483;BME280;18103;52.246;8.052;2023-08-08T03:08:36;100001.81;;;14.14;86.63
31483;BME280;18103;52.246;8.052;2023-08-08T03:11:01;100005.22;;;14.24;86.21
31483;BME280;18103;52.246;8.052;2023-08-08T03:13:27;99992.94;;;14.23;86.33
31483;BME280;18103;52.246;8.052;2023-08-08T03:15:54;99980.34;;;14.07;87.22
31483;BME280;18103;52.246;8.052;2023-08-08T03:18:22;99987.72;;;14.13;87.33
31483;BME280;18103;52.246;8.052;2023-08-08T03:20:48;99994.47;;;14.08;87.47
31483;BME280;18103;52.246;8.052;2023-08-08T03:23:17;99992.94;;;14.05;87.57
31483;BME280;18103;52.246;8.052;2023-08-08T03:25:43;99989.09;;;14.17;87.01
31483;BME280;18103;52.246;8.052;2023-08-08T03:28:08;99985.28;;;14.20;86.75
31483;BME280;18103;52.246;8.052;2023-08-08T03:30:36;99974.59;;;14.12;87.42
31483;BME280;18103;52.246;8.052;2023-08-08T03:33:02;99972.22;;;14.27;86.59
31483;BME280;18103;52.246;8.052;2023-08-08T03:35:27;99980.88;;;14.29;86.76
31483;BME280;18103;52.246;8.052;2023-08-08T03:37:53;99982.25;;;14.15;87.48
31483;BME280;18103;52.246;8.052;2023-08-08T03:40:18;99983.38;;;14.12;87.87
31483;BME280;18103;52.246;8.052;2023-08-08T03:42:46;99985.13;;;14.22;87.21
31483;BME280;18103;52.246;8.052;2023-08-08T03:45:14;99977.28;;;14.38;86.40
31483;BME280;18103;52.246;8.052;2023-08-08T03:47:42;99979.03;;;14.29;86.63
31483;BME280;18103;52.246;8.052;2023-08-08T03:50:11;99969.94;;;14.32;86.82
31483;BME280;18103;52.246;8.052;2023-08-08T03:52:36;99970.25;;;14.29;87.26
31483;BME280;18103;52.246;8.052;2023-08-08T03:55:03;99958.75;;;14.20;87.73
31483;BME280;18103;52.246;8.052;2023-08-08T03:57:29;99963.44;;;14.26;87.83
31483;BME280;18103;52.246;8.052;2023-08-08T03:59:57;99966.25;;;14.25;88.06
31483;BME280;18103;52.246;8.052;2023-08-08T04:02:23;99956.69;;;14.14;88.72
31483;BME280;18103;52.246;8.052;2023-08-08T04:04:49;99949.59;;;14.41;87.43
31483;BME280;18103;52.246;8.052;2023-08-08T04:07:14;99953.63;;;14.27;88.27
31483;BME280;18103;52.246;8.052;2023-08-08T04:09:42;99960.63;;;14.28;88.11
31483;BME280;18103;52.246;8.052;2023-08-08T04:12:13;99958.22;;;14.16;88.53
31483;BME280;18103;52.246;8.052;2023-08-08T04:14:40;99964.56;;;14.24;87.92
31483;BME280;18103;52.246;8.052;2023-08-08T04:17:06;99967.53;;;14.20;88.37
31483;BME280;18103;52.246;8.052;2023-08-08T04:19:31;99965.34;;;14.16;89.08
31483;BME280;18103;52.246;8.052;2023-08-08T04:21:57;99958.94;;;14.27;88.63
31483;BME280;18103;52.246;8.052;2023-08-08T04:24:25;99963.75;;;14.23;89.13
31483;BME280;18103;52.246;8.052;2023-08-08T04:26:50;99958.34;;;14.33;88.43
31483;BME280;18103;52.246;8.052;2023-08-08T04:29:18;99962.59;;;14.26;89.10
31483;BME280;18103;52.246;8.052;2023-08-08T04:31:43;99962.13;;;14.30;88.74
31483;BME280;18103;52.246;8.052;2023-08-08T04:34:09;99962.44;;;14.27;89.28
31483;BME280;18103;52.246;8.052;2023-08-08T04:36:34;99957.34;;;14.34;88.91
31483;BME280;18103;52.246;8.052;2023-08-08T04:39:00;99959.16;;;14.33;88.93
31483;BME280;18103;52.246;8.052;2023-08-08T04:41:25;99957.13;;;14.45;87.94
31483;BME280;18103;52.246;8.052;2023-08-08T04:43:50;99967.75;;;14.53;87.99
31483;BME280;18103;52.246;8.052;2023-08-08T04:46:16;99963.72;;;14.41;88.78
31483;BME280;18103;52.246;8.052;2023-08-08T04:48:41;99959.16;;;14.33;89.11
31483;BME280;18103;52.246;8.052;2023-08-08T04:51:09;99957.25;;;14.44;88.72
31483;BME280;18103;52.246;8.052;2023-08-08T04:53:37;99955.59;;;14.43;88.24
31483;BME280;18103;52.246;8.052;2023-08-08T04:56:03;99953.38;;;14.38;89.02
31483;BME280;18103;52.246;8.052;2023-08-08T04:58:28;99947.19;;;14.29;89.24
31483;BME280;18103;52.246;8.052;2023-08-08T05:00:56;99950.44;;;14.41;88.47
31483;BME280;18103;52.246;8.052;2023-08-08T05:03:22;99935.28;;;14.33;89.15
31483;BME280;18103;52.246;8.052;2023-08-08T05:05:47;99939.91;;;14.31;89.53
31483;BME280;18103;52.246;8.052;2023-08-08T05:08:13;99935.34;;;14.42;88.82
31483;BME280;18103;52.246;8.052;2023-08-08T05:10:39;99937.41;;;14.30;89.59
31483;BME280;18103;52.246;8.052;2023-08-08T05:13:07;99936.09;;;14.34;89.22
31483;BME280;18103;52.246;8.052;2023-08-08T05:15:33;99936.47;;;14.39;89.07
31483;BME280;18103;52.246;8.052;2023-08-08T05:17:58;99945.19;;;14.49;88.59
31483;BME280;18103;52.246;8.052;2023-08-08T05:20:24;99945.94;;;14.42;89.04
31483;BME280;18103;52.246;8.052;2023-08-08T05:22:50;99949.03;;;14.29;90.12
31483;BME280;18103;52.246;8.052;2023-08-08T05:25:16;99942.41;;;14.33;89.75
31483;BME280;18103;52.246;8.052;2023-08-08T05:27:41;99939.22;;;14.29;90.07
31483;BME280;18103;52.246;8.052;2023-08-08T05:30:07;99943.63;;;14.38;89.79
31483;BME280;18103;52.246;8.052;2023-08-08T05:32:32;99944.28;;;14.41;89.73
31483;BME280;18103;52.246;8.052;2023-08-08T05:35:00;99939.91;;;14.31;90.31
31483;BME280;18103;52.246;8.052;2023-08-08T05:37:29;99938.16;;;14.40;90.05
31483;BME280;18103;52.246;8.052;2023-08-08T05:39:59;99933.88;;;14.47;89.88
31483;BME280;18103;52.246;8.052;2023-08-08T05:42:25;99937.09;;;14.33;90.85
31483;BME280;18103;52.246;8.052;2023-08-08T05:44:50;99939.81;;;14.41;90.29
31483;BME280;18103;52.246;8.052;2023-08-08T05:47:18;99938.19;;;14.48;90.19
31483;BME280;18103;52.246;8.052;2023-08-08T05:49:46;99937.06;;;14.51;90.21
31483;BME280;18103;52.246;8.052;2023-08-08T05:52:12;99938.97;;;14.41;90.92
31483;BME280;18103;52.246;8.052;2023-08-08T05:54:37;99946.84;;;14.50;90.62
31483;BME280;18103;52.246;8.052;2023-08-08T05:57:05;99943.84;;;14.45;90.96
31483;BME280;18103;52.246;8.052;2023-08-08T05:59:31;99947.22;;;14.55;90.67
31483;BME280;18103;52.246;8.052;2023-08-08T06:01:56;99944.72;;;14.54;90.79
31483;BME280;18103;52.246;8.052;2023-08-08T06:04:25;99945.09;;;14.59;90.65
31483;BME280;18103;52.246;8.052;2023-08-08T06:06:50;99938.19;;;14.66;90.50
31483;BME280;18103;52.246;8.052;2023-08-08T06:09:16;99942.47;;;14.67;90.46
31483;BME280;18103;52.246;8.052;2023-08-08T06:11:44;99942.38;;;14.77;90.48
31483;BME280;18103;52.246;8.052;2023-08-08T06:14:09;99949.34;;;14.78;90.33
31483;BME280;18103;52.246;8.052;2023-08-08T06:16:34;99948.22;;;14.81;90.02
31483;BME280;18103;52.246;8.052;2023-08-08T06:19:00;99946.09;;;14.84;89.78
31483;BME280;18103;52.246;8.052;2023-08-08T06:21:25;99951.75;;;14.89;89.27
31483;BME280;18103;52.246;8.052;2023-08-08T06:23:54;99950.06;;;14.88;89.63
31483;BME280;18103;52.246;8.052;2023-08-08T06:26:22;99945.97;;;14.94;89.87
31483;BME280;18103;52.246;8.052;2023-08-08T06:28:48;99944.34;;;15.01;89.77
31483;BME280;18103;52.246;8.052;2023-08-08T06:31:17;99951.66;;;15.08;89.46
31483;BME280;18103;52.246;8.052;2023-08-08T06:33:45;99947.84;;;15.10;88.59
31483;BME280;18103;52.246;8.052;2023-08-08T06:36:11;99953.03;;;15.20;89.32
31483;BME280;18103;52.246;8.052;2023-08-08T06:38:36;99954.06;;;15.27;89.05
31483;BME280;18103;52.246;8.052;2023-08-08T06:41:03;99953.91;;;15.29;88.46
31483;BME280;18103;52.246;8.052;2023-08-08T06:43:31;99950.59;;;15.27;87.81
31483;BME280;18103;52.246;8.052;2023-08-08T06:45:57;99950.63;;;15.35;88.02
31483;BME280;18103;52.246;8.052;2023-08-08T06:48:24;99945.78;;;15.38;88.17
31483;BME280;18103;52.246;8.052;2023-08-08T06:50:49;99957.59;;;15.44;88.22
31483;BME280;18103;52.246;8.052;2023-08-08T06:53:17;99949.03;;;15.59;87.70
31483;BME280;18103;52.246;8.052;2023-08-08T06:55:45;99941.84;;;15.51;86.82
31483;BME280;18103;52.246;8.052;2023-08-08T06:58:10;99954.47;;;15.57;87.02
31483;BME280;18103;52.246;8.052;2023-08-08T07:00:36;99946.50;;;15.57;87.21
31483;BME280;18103;52.246;8.052;2023-08-08T07:03:01;99947.00;;;15.61;87.36
31483;BME280;18103;52.246;8.052;2023-08-08T07:05:27;99944.03;;;15.72;86.83
31483;BME280;18103;52.246;8.052;2023-08-08T07:07:52;99958.91;;;15.83;86.68
31483;BME280;18103;52.246;8.052;2023-08-08T07:10:18;99952.72;;;15.90;85.96
31483;BME280;18103;52.246;8.052;2023-08-08T07:12:46;99960.25;;;15.95;85.99
31483;BME280;18103;52.246;8.052;2023-08-08T07:15:14;99957.41;;;15.88;85.76
31483;BME280;18103;52.246;8.052;2023-08-08T07:17:41;99952.72;;;15.90;85.71
31483;BME280;18103;52.246;8.052;2023-08-08T07:20:07;99951.09;;;15.98;85.59
31483;BME280;18103;52.246;8.052;2023-08-08T07:22:33;99949.59;;;15.87;86.38
31483;BME280;18103;52.246;8.052;2023-08-08T07:24:59;99945.75;;;15.81;86.24
31483;BME280;18103;52.246;8.052;2023-08-08T07:27:26;99948.72;;;15.78;86.56
31483;BME280;18103;52.246;8.052;2023-08-08T07:29:55;99950.91;;;15.83;86.34
31483;BME280;18103;52.246;8.052;2023-08-08T07:32:20;99948.72;;;15.86;85.99
31483;BME280;18103;52.246;8.052;2023-08-08T07:34:45;99953.41;;;15.93;86.49
31483;BME280;18103;52.246;8.052;2023-08-08T07:37:14;99946.25;;;15.85;86.23
31483;BME280;18103;52.246;8.052;2023-08-08T07:39:40;99946.03;;;15.70;85.98
31483;BME280;18103;52.246;8.052;2023-08-08T07:42:05;99941.34;;;15.64;85.97
31483;BME280;18103;52.246;8.052;2023-08-08T07:44:30;99936.19;;;15.54;86.11
31483;BME280;18103;52.246;8.052;2023-08-08T07:47:00;99943.19;;;15.63;86.22
31483;BME280;18103;52.246;8.052;2023-08-08T07:49:25;99940.72;;;15.70;85.99
31483;BME280;18103;52.246;8.052;2023-08-08T07:51:53;99942.88;;;15.66;86.14
31483;BME280;18103;52.246;8.052;2023-08-08T07:54:21;99944.69;;;15.57;86.10
31483;BME280;18103;52.246;8.052;2023-08-08T07:56:46;99935.22;;;15.63;85.35
31483;BME280;18103;52.246;8.052;2023-08-08T07:59:14;99930.44;;;15.83;86.14
31483;BME280;18103;52.246;8.052;2023-08-08T08:01:39;99926.78;;;15.84;84.87
31483;BME280;18103;52.246;8.052;2023-08-08T08:04:07;99930.97;;;15.87;83.62
31483;BME280;18103;52.246;8.052;2023-08-08T08:06:32;99930.97;;;15.87;82.85
31483;BME280;18103;52.246;8.052;2023-08-08T08:09:00;99916.81;;;16.03;83.77
31483;BME280;18103;52.246;8.052;2023-08-08T08:11:25;99929.13;;;16.04;82.23
31483;BME280;18103;52.246;8.052;2023-08-08T08:13:53;99925.97;;;16.08;80.52
31483;BME280;18103;52.246;8.052;2023-08-08T08:16:18;99924.31;;;15.99;79.51
31483;BME280;18103;52.246;8.052;2023-08-08T08:18:46;99918.31;;;16.22;79.14
31483;BME280;18103;52.246;8.052;2023-08-08T08:21:13;99918.13;;;16.40;80.96
31483;BME280;18103;52.246;8.052;2023-08-08T08:23:41;99919.91;;;16.48;80.19
31483;BME280;18103;52.246;8.052;2023-08-08T08:26:06;99914.13;;;16.28;79.21
31483;BME280;18103;52.246;8.052;2023-08-08T08:28:32;99924.44;;;16.22;78.23
31483;BME280;18103;52.246;8.052;2023-08-08T08:30:57;99929.94;;;16.37;78.58
31483;BME280;18103;52.246;8.052;2023-08-08T08:33:28;99921.75;;;16.47;78.75
31483;BME280;18103;52.246;8.052;2023-08-08T08:35:54;99915.56;;;16.55;78.67
31483;BME280;18103;52.246;8.052;2023-08-08T08:38:21;99922.41;;;16.49;79.18
31483;BME280;18103;52.246;8.052;2023-08-08T08:40:47;99921.25;;;16.52;78.04
31483;BME280;18103;52.246;8.052;2023-08-08T08:43:15;99921.75;;;16.55;79.17
31483;BME280;18103;52.246;8.052;2023-08-08T08:45:49;99913.75;;;16.64;78.44
31483;BME280;18103;52.246;8.052;2023-08-08T08:48:16;99918.00;;;16.81;79.60
31483;BME280;18103;52.246;8.052;2023-08-08T08:50:43;99920.69;;;16.89;77.86
31483;BME280;18103;52.246;8.052;2023-08-08T08:53:11;99915.00;;;16.92;78.68
31483;BME280;18103;52.246;8.052;2023-08-08T08:55:38;99923.31;;;16.98;77.36
31483;BME280;18103;52.246;8.052;2023-08-08T08:58:04;99918.34;;;16.95;76.22
31483;BME280;18103;52.246;8.052;2023-08-08T09:00:31;99921.47;;;16.98;77.29
31483;BME280;18103;52.246;8.052;2023-08-08T09:03:01;99920.44;;;17.07;77.38
31483;BME280;18103;52.246;8.052;2023-08-08T09:05:26;99925.06;;;17.14;77.84
31483;BME280;18103;52.246;8.052;2023-08-08T09:07:52;99933.69;;;17.24;78.13
31483;BME280;18103;52.246;8.052;2023-08-08T09:10:18;99925.06;;;17.14;77.01
31483;BME280;18103;52.246;8.052;2023-08-08T09:12:45;99926.19;;;16.71;73.00
31483;BME280;18103;52.246;8.052;2023-08-08T09:15:14;99925.19;;;16.89;73.93
31483;BME280;18103;52.246;8.052;2023-08-08T09:17:43;99913.63;;;17.05;75.69
31483;BME280;18103;52.246;8.052;2023-08-08T09:20:11;99912.09;;;17.10;75.89
31483;BME280;18103;52.246;8.052;2023-08-08T09:22:41;99908.63;;;17.02;75.05
31483;BME280;18103;52.246;8.052;2023-08-08T09:25:09;99921.56;;;17.13;76.15
31483;BME280;18103;52.246;8.052;2023-08-08T09:27:37;99912.22;;;17.17;74.63
31483;BME280;18103;52.246;8.052;2023-08-08T09:30:09;99906.56;;;17.12;73.71
31483;BME280;18103;52.246;8.052;2023-08-08T09:32:35;99905.00;;;17.26;75.25
31483;BME280;18103;52.246;8.052;2023-08-08T09:35:05;99900.16;;;17.30;73.88
31483;BME280;18103;52.246;8.052;2023-08-08T09:37:34;99890.81;;;17.34;74.09
31483;BME280;18103;52.246;8.052;2023-08-08T09:40:03;99897.63;;;17.36;72.41
31483;BME280;18103;52.246;8.052;2023-08-08T09:42:35;99898.00;;;17.56;72.06
31483;BME280;18103;52.246;8.052;2023-08-08T09:45:08;99891.97;;;17.54;72.37
31483;BME280;18103;52.246;8.052;2023-08-08T09:47:33;99897.28;;;17.62;72.63
31483;BME280;18103;52.246;8.052;2023-08-08T09:50:00;99890.06;;;17.71;71.05
31483;BME280;18103;52.246;8.052;2023-08-08T09:52:30;99887.72;;;17.68;71.17
31483;BME280;18103;52.246;8.052;2023-08-08T09:54:58;99893.72;;;17.70;71.23
31483;BME280;18103;52.246;8.052;2023-08-08T09:57:24;99899.66;;;17.57;68.94
31483;BME280;18103;52.246;8.052;2023-08-08T09:59:51;99910.34;;;17.57;70.17
31483;BME280;18103;52.246;8.052;2023-08-08T10:02:19;99900.78;;;17.63;71.34
31483;BME280;18103;52.246;8.052;2023-08-08T10:04:47;99907.50;;;17.59;69.85
31483;BME280;18103;52.246;8.052;2023-08-08T10:07:15;99902.88;;;17.44;68.92
31483;BME280;18103;52.246;8.052;2023-08-08T10:09:43;99902.50;;;17.56;69.84
31483;BME280;18103;52.246;8.052;2023-08-08T10:12:11;99907.19;;;17.54;69.55
31483;BME280;18103;52.246;8.052;2023-08-08T10:14:37;99902.59;;;17.62;70.55
31483;BME280;18103;52.246;8.052;2023-08-08T10:17:05;99906.53;;;17.52;70.33
31483;BME280;18103;52.246;8.052;2023-08-08T10:19:34;99908.50;;;17.58;71.10
31483;BME280;18103;52.246;8.052;2023-08-08T10:22:04;99898.47;;;17.60;70.71
31483;BME280;18103;52.246;8.052;2023-08-08T10:24:36;99896.38;;;17.47;70.49
31483;BME280;18103;52.246;8.052;2023-08-08T10:27:04;99915.22;;;17.45;70.57
31483;BME280;18103;52.246;8.052;2023-08-08T10:29:32;99907.03;;;17.47;70.84
31483;BME280;18103;52.246;8.052;2023-08-08T10:32:02;99906.34;;;17.53;69.55
31483;BME280;18103;52.246;8.052;2023-08-08T10:34:39;99910.84;;;17.53;69.88
31483;BME280;18103;52.246;8.052;2023-08-08T10:37:11;99907.19;;;17.54;69.86
31483;BME280;18103;52.246;8.052;2023-08-08T10:39:57;99914.38;;;17.53;68.83
31483;BME280;18103;52.246;8.052;2023-08-08T10:42:26;99910.97;;;17.59;70.72
31483;BME280;18103;52.246;8.052;2023-08-08T10:44:56;99913.94;;;17.65;70.05
31483;BME280;18103;52.246;8.052;2023-08-08T10:47:29;99908.31;;;17.59;70.56
31483;BME280;18103;52.246;8.052;2023-08-08T10:52:54;99912.91;;;17.42;69.60
31483;BME280;18103;52.246;8.052;2023-08-08T10:55:56;99903.69;;;17.53;69.93
31483;BME280;18103;52.246;8.052;2023-08-08T10:58:15;99907.00;;;17.55;68.84
31483;BME280;18103;52.246;8.052;2023-08-08T11:00:44;99911.38;;;17.48;69.29
31483;BME280;18103;52.246;8.052;2023-08-08T11:03:10;99905.69;;;17.51;69.48
31483;BME280;18103;52.246;8.052;2023-08-08T11:05:38;99903.38;;;17.48;68.51
31483;BME280;18103;52.246;8.052;2023-08-08T11:08:09;99910.84;;;17.53;68.45
31483;BME280;18103;52.246;8.052;2023-08-08T11:10:36;99908.19;;;17.53;67.13
31483;BME280;18103;52.246;8.052;2023-08-08T11:13:04;99903.19;;;17.50;66.32
31483;BME280;18103;52.246;8.052;2023-08-08T11:15:32;99899.88;;;17.48;68.00
31483;BME280;18103;52.246;8.052;2023-08-08T11:17:59;99899.94;;;17.39;67.35
31483;BME280;18103;52.246;8.052;2023-08-08T11:20:25;99915.09;;;17.39;66.75
31483;BME280;18103;52.246;8.052;2023-08-08T11:22:55;99923.31;;;17.29;68.00
31483;BME280;18103;52.246;8.052;2023-08-08T11:25:29;99919.56;;;17.15;71.61
31483;BME280;18103;52.246;8.052;2023-08-08T11:28:00;99941.59;;;17.09;73.17
31483;BME280;18103;52.246;8.052;2023-08-08T11:30:32;99943.50;;;16.75;75.93
31483;BME280;18103;52.246;8.052;2023-08-08T11:32:59;99948.66;;;16.77;77.44
31483;BME280;18103;52.246;8.052;2023-08-08T11:35:29;99931.66;;;16.86;78.41
31483;BME280;18103;52.246;8.052;2023-08-08T11:37:59;99933.53;;;16.69;77.60
31483;BME280;18103;52.246;8.052;2023-08-08T11:40:27;99919.16;;;16.79;78.08
31483;BME280;18103;52.246;8.052;2023-08-08T11:42:55;99920.44;;;17.07;79.20
31483;BME280;18103;52.246;8.052;2023-08-08T11:45:22;99919.91;;;17.12;79.24
31483;BME280;18103;52.246;8.052;2023-08-08T11:47:49;99914.22;;;17.15;79.37
31483;BME280;18103;52.246;8.052;2023-08-08T11:50:22;99916.59;;;17.10;78.70
31483;BME280;18103;52.246;8.052;2023-08-08T11:52:53;99909.38;;;17.19;78.41
31483;BME280;18103;52.246;8.052;2023-08-08T11:55:27;99895.19;;;17.26;76.15
31483;BME280;18103;52.246;8.052;2023-08-08T11:57:54;99898.94;;;17.40;76.67
31483;BME280;18103;52.246;8.052;2023-08-08T12:00:26;99904.91;;;17.42;72.75
31483;BME280;18103;52.246;8.052;2023-08-08T12:02:52;99895.50;;;17.55;73.22
31483;BME280;18103;52.246;8.052;2023-08-08T12:05:21;99892.59;;;17.65;71.77
31483;BME280;18103;52.246;8.052;2023-08-08T12:07:48;99899.00;;;17.78;70.68
31483;BME280;18103;52.246;8.052;2023-08-08T12:10:21;99898.94;;;17.87;70.73
31483;BME280;18103;52.246;8.052;2023-08-08T12:12:54;99905.06;;;17.95;70.16
31483;BME280;18103;52.246;8.052;2023-08-08T12:15:31;99902.34;;;18.19;69.90
31483;BME280;18103;52.246;8.052;2023-08-08T12:18:01;99898.41;;;18.29;67.41
31483;BME280;18103;52.246;8.052;2023-08-08T12:20:31;99909.75;;;18.46;67.52
31483;BME280;18103;52.246;8.052;2023-08-08T12:22:57;99908.19;;;18.52;67.79
31483;BME280;18103;52.246;8.052;2023-08-08T12:25:23;99903.59;;;18.46;66.40
31483;BME280;18103;52.246;8.052;2023-08-08T12:27:48;99910.13;;;18.43;65.25
31483;BME280;18103;52.246;8.052;2023-08-08T12:30:17;99894.94;;;18.59;66.67
31483;BME280;18103;52.246;8.052;2023-08-08T12:32:42;99897.81;;;18.57;66.19
31483;BME280;18103;52.246;8.052;2023-08-08T12:35:08;99890.78;;;18.56;66.32
31483;BME280;18103;52.246;8.052;2023-08-08T12:37:33;99896.06;;;18.50;66.41
31483;BME280;18103;52.246;8.052;2023-08-08T12:40:01;99916.13;;;18.30;65.19
31483;BME280;18103;52.246;8.052;2023-08-08T12:42:30;99923.84;;;18.25;67.39
31483;BME280;18103;52.246;8.052;2023-08-08T12:44:55;99921.81;;;18.27;67.92
31483;BME280;18103;52.246;8.052;2023-08-08T12:47:23;99916.94;;;18.16;66.46
31483;BME280;18103;52.246;8.052;2023-08-08T12:49:48;99912.09;;;18.11;66.93
31483;BME280;18103;52.246;8.052;2023-08-08T12:52:14;99910.53;;;18.02;67.09
31483;BME280;18103;52.246;8.052;2023-08-08T12:54:42;99909.84;;;18.23;67.43
31483;BME280;18103;52.246;8.052;2023-08-08T12:57:07;99902.00;;;18.37;67.88
31483;BME280;18103;52.246;8.052;2023-08-08T12:59:37;99899.56;;;18.50;68.80
31483;BME280;18103;52.246;8.052;2023-08-08T13:02:03;99903.63;;;18.61;66.22